Time;durP1;ratioP1;P1;durP2;ratioP2;P2;SDS_P1;SDS_P2;PMS_P1;PMS_P2;Temp;Humidity;BMP_temperature;BMP_pressure;BME280_temperature;BME280_humidity;BME280_pressure;Samples;Min_cycle;Max_cycle;Signal;HPM_P1;HPM_P2
2021/09/22 00:00:44;;;;;;;7.90;4.60;;;;;;;12.89;82.25;102114.65;112504;1192;61043;-80
2021/09/22 00:03:11;;;;;;;11.00;4.90;;;;;;;12.88;82.34;102114.45;112474;1192;62176;-81
2021/09/22 00:05:38;;;;;;;11.80;6.30;;;;;;;12.86;82.57;102110.17;112313;1193;71590;-78
2021/09/22 00:08:04;;;;;;;8.30;4.70;;;;;;;12.84;82.62;102114.98;112141;1193;73571;-79
2021/09/22 00:10:31;;;;;;;7.90;4.40;;;;;;;12.81;82.98;102122.71;112292;1192;61059;-79
2021/09/22 00:12:58;;;;;;;9.40;4.10;;;;;;;12.79;83.02;102123.45;112186;1193;60973;-78
2021/09/22 00:15:25;;;;;;;13.10;6.10;;;;;;;12.77;83.89;102118.50;112473;1192;75257;-80
2021/09/22 00:17:53;;;;;;;9.30;5.30;;;;;;;12.77;83.83;102118.58;112468;1192;71054;-80
2021/09/22 00:20:24;;;;;;;12.10;5.30;;;;;;;12.75;84.05;102114.81;112464;1192;72611;-77
2021/09/22 00:23:03;;;;;;;10.20;5.80;;;;;;;12.75;84.20;102114.28;112546;1192;62019;-80
2021/09/22 00:25:35;;;;;;;10.50;6.20;;;;;;;12.75;84.18;102113.64;112716;1193;60973;-79
2021/09/22 00:28:04;;;;;;;10.20;5.60;;;;;;;12.74;84.37;102113.55;112359;1193;74747;-80
2021/09/22 00:30:31;;;;;;;10.00;5.70;;;;;;;12.71;84.94;102111.55;112578;1192;71669;-78
2021/09/22 00:33:00;;;;;;;12.80;7.30;;;;;;;12.69;85.13;102114.59;112131;1193;72925;-80
2021/09/22 00:35:26;;;;;;;9.50;5.90;;;;;;;12.68;85.46;102112.39;112474;1193;62043;-80
2021/09/22 00:37:54;;;;;;;12.10;6.10;;;;;;;12.66;85.63;102109.33;112480;1192;61719;-80
2021/09/22 00:40:20;;;;;;;8.00;5.50;;;;;;;12.64;85.57;102105.39;112334;1192;75749;-80
2021/09/22 00:42:48;;;;;;;11.50;6.40;;;;;;;12.64;85.71;102105.11;112443;1193;72175;-78
2021/09/22 00:45:17;;;;;;;7.80;4.80;;;;;;;12.62;85.84;102104.02;112549;1192;73619;-83
2021/09/22 00:47:44;;;;;;;12.20;6.70;;;;;;;12.59;85.97;102104.48;112474;1192;61386;-79
2021/09/22 00:50:12;;;;;;;9.30;5.90;;;;;;;12.57;86.24;102103.33;112704;1192;60954;-80
2021/09/22 00:52:40;;;;;;;10.80;6.30;;;;;;;12.55;85.79;102105.61;112759;1192;75796;-79
2021/09/22 00:55:09;;;;;;;12.00;7.40;;;;;;;12.55;86.24;102103.90;113012;1192;72030;-82
2021/09/22 00:57:53;;;;;;;15.00;7.30;;;;;;;12.54;86.59;102104.18;112283;1192;73619;-79
2021/09/22 01:00:23;;;;;;;14.60;7.20;;;;;;;12.53;86.72;102099.86;112803;1192;62421;-81
2021/09/22 01:02:49;;;;;;;10.60;6.60;;;;;;;12.52;86.46;102103.08;112682;1193;61058;-80
2021/09/22 01:05:19;;;;;;;10.00;6.70;;;;;;;12.53;86.71;102101.76;112374;1193;74692;-80
2021/09/22 01:07:46;;;;;;;12.60;7.20;;;;;;;12.54;86.80;102101.70;112706;1192;71519;-80
2021/09/22 01:10:14;;;;;;;11.50;6.10;;;;;;;12.54;86.95;102104.49;112412;1192;72616;-78
2021/09/22 01:12:41;;;;;;;9.60;5.30;;;;;;;12.54;87.41;102104.98;112698;1192;61046;-80
2021/09/22 01:15:09;;;;;;;14.40;7.90;;;;;;;12.53;87.10;102106.89;112482;1192;61065;-80
2021/09/22 01:17:35;;;;;;;14.30;8.00;;;;;;;12.52;87.63;102108.80;112561;1192;75646;-80
2021/09/22 01:20:05;;;;;;;10.90;6.70;;;;;;;12.52;87.21;102111.96;112366;1193;61078;-80
2021/09/22 01:22:32;;;;;;;12.10;7.00;;;;;;;12.53;87.08;102115.77;112302;1193;72679;-80
2021/09/22 01:24:59;;;;;;;13.10;6.80;;;;;;;12.54;87.10;102111.09;112316;1193;61045;-79
2021/09/22 01:27:26;;;;;;;11.50;6.80;;;;;;;12.56;87.12;102113.02;112539;1192;61059;-79
2021/09/22 01:29:53;;;;;;;11.80;6.30;;;;;;;12.57;87.00;102109.91;112003;1193;74572;-79
2021/09/22 01:32:22;;;;;;;11.60;7.50;;;;;;;12.56;87.35;102104.67;112409;1192;71114;-79
2021/09/22 01:34:48;;;;;;;14.80;9.10;;;;;;;12.55;87.58;102105.60;112479;1192;73604;-81
2021/09/22 01:37:15;;;;;;;13.70;7.50;;;;;;;12.55;87.84;102111.28;112091;1194;63132;-80
2021/09/22 01:39:43;;;;;;;11.20;6.60;;;;;;;12.55;87.72;102116.35;112390;1192;60988;-79
2021/09/22 01:42:10;;;;;;;11.00;5.90;;;;;;;12.54;87.99;102119.64;112114;1193;75584;-80
2021/09/22 01:44:37;;;;;;;12.10;7.20;;;;;;;12.51;88.49;102120.24;112738;1192;72390;-81
2021/09/22 01:47:04;;;;;;;12.50;7.10;;;;;;;12.50;88.36;102120.89;112750;1192;72584;-80
2021/09/22 01:49:31;;;;;;;13.00;5.80;;;;;;;12.47;88.41;102123.83;112754;1192;61435;-80
2021/09/22 01:52:00;;;;;;;9.00;6.10;;;;;;;12.43;88.80;102114.25;112701;1193;61184;-80
2021/09/22 01:54:27;;;;;;;12.10;7.50;;;;;;;12.40;88.96;102121.67;112782;1192;75070;-80
2021/09/22 01:56:55;;;;;;;14.70;8.20;;;;;;;12.39;89.07;102117.90;113045;1192;71117;-80
2021/09/22 01:59:22;;;;;;;11.30;6.70;;;;;;;12.39;89.11;102115.21;112942;1192;73756;-80
2021/09/22 02:01:48;;;;;;;14.50;7.70;;;;;;;12.38;89.12;102110.19;112754;1192;61947;-80
2021/09/22 02:04:15;;;;;;;9.40;5.30;;;;;;;12.37;89.27;102106.71;112541;1192;61068;-78
2021/09/22 02:06:42;;;;;;;10.90;6.40;;;;;;;12.35;89.18;102103.22;112167;1194;75722;-80
2021/09/22 02:09:08;;;;;;;14.30;7.80;;;;;;;12.32;89.12;102102.60;112672;1192;61017;-80
2021/09/22 02:11:35;;;;;;;14.30;7.30;;;;;;;12.31;89.20;102105.05;112839;1193;61032;-80
2021/09/22 02:14:01;;;;;;;16.40;9.40;;;;;;;12.27;89.42;102102.18;112995;1192;61778;-80
2021/09/22 02:16:28;;;;;;;13.70;8.00;;;;;;;12.28;89.47;102104.62;112810;1192;62166;-80
2021/09/22 02:18:54;;;;;;;11.40;7.60;;;;;;;12.27;89.82;102106.64;112372;1192;61160;-79
2021/09/22 02:21:21;;;;;;;11.60;6.40;;;;;;;12.25;89.84;102107.23;112464;1192;61039;-79
2021/09/22 02:23:47;;;;;;;18.90;8.50;;;;;;;12.22;90.45;102103.01;112409;1192;61099;-80
2021/09/22 02:26:14;;;;;;;15.20;7.40;;;;;;;12.21;90.42;102101.73;112176;1193;61064;-79
2021/09/22 02:28:40;;;;;;;14.50;6.90;;;;;;;12.19;91.06;102099.59;112179;1193;61028;-80
2021/09/22 02:31:08;;;;;;;15.40;8.60;;;;;;;12.17;91.27;102094.34;112202;1193;61006;-79
2021/09/22 02:33:35;;;;;;;13.40;8.30;;;;;;;12.15;91.71;102088.29;112732;1192;72114;-79
2021/09/22 02:36:01;;;;;;;14.50;8.50;;;;;;;12.14;91.84;102092.25;112413;1192;73273;-79
2021/09/22 02:38:28;;;;;;;17.10;8.50;;;;;;;12.13;92.24;102088.64;112413;1192;61096;-79
2021/09/22 02:40:54;;;;;;;16.60;9.60;;;;;;;12.12;92.22;102089.90;111905;1193;61061;-78
2021/09/22 02:43:21;;;;;;;14.20;8.70;;;;;;;12.10;92.47;102096.58;112433;1192;61067;-80
2021/09/22 02:45:47;;;;;;;14.70;7.70;;;;;;;12.12;91.92;102101.43;112484;1192;61013;-79
2021/09/22 02:48:14;;;;;;;16.40;9.90;;;;;;;12.11;92.23;102102.33;112468;1193;72269;-80
2021/09/22 02:50:40;;;;;;;18.60;9.50;;;;;;;12.11;92.76;102104.48;112437;1192;61068;-79
2021/09/22 02:53:07;;;;;;;15.90;8.80;;;;;;;12.11;92.50;102110.49;112200;1193;61035;-80
2021/09/22 02:55:33;;;;;;;13.20;7.70;;;;;;;12.10;92.45;102104.17;112626;1192;61106;-78
2021/09/22 02:58:00;;;;;;;15.30;7.90;;;;;;;12.09;92.69;102104.34;112183;1193;61049;-80
2021/09/22 03:00:27;;;;;;;14.50;8.80;;;;;;;12.08;92.91;102105.89;112306;1193;72525;-80
2021/09/22 03:02:53;;;;;;;14.80;9.30;;;;;;;12.04;93.18;102110.30;112299;1192;61109;-80
2021/09/22 03:05:20;;;;;;;15.00;9.10;;;;;;;12.01;93.09;102109.20;112513;1192;61081;-80
2021/09/22 03:07:47;;;;;;;16.40;9.10;;;;;;;11.98;93.16;102111.45;112346;1192;62113;-79
2021/09/22 03:10:13;;;;;;;18.80;9.80;;;;;;;11.95;93.32;102116.48;112183;1193;61129;-79
2021/09/22 03:12:40;;;;;;;17.40;9.40;;;;;;;11.93;93.08;102114.74;112479;1191;61045;-78
2021/09/22 03:15:07;;;;;;;19.20;9.90;;;;;;;11.91;93.22;102114.11;112457;1192;61059;-79
2021/09/22 03:17:33;;;;;;;17.10;8.80;;;;;;;11.89;93.73;102116.95;112401;1193;61245;-80
2021/09/22 03:20:00;;;;;;;17.80;10.00;;;;;;;11.87;93.31;102116.89;112321;1193;61046;-80
2021/09/22 03:22:26;;;;;;;15.40;9.60;;;;;;;11.85;93.39;102115.34;112705;1192;61036;-80
2021/09/22 03:24:53;;;;;;;16.10;8.20;;;;;;;11.82;93.32;102116.77;112056;1195;61061;-80
2021/09/22 03:27:19;;;;;;;16.60;8.60;;;;;;;11.78;93.93;102110.14;112422;1192;61116;-79
2021/09/22 03:29:46;;;;;;;18.20;10.20;;;;;;;11.73;94.21;102106.55;112396;1192;61917;-80
2021/09/22 03:32:13;;;;;;;18.30;10.50;;;;;;;11.69;94.51;102105.67;112360;1192;75365;-79
2021/09/22 03:34:39;;;;;;;14.70;9.30;;;;;;;11.66;94.65;102103.82;112070;1193;61026;-79
2021/09/22 03:37:06;;;;;;;17.50;9.90;;;;;;;11.63;94.55;102102.88;111886;1193;61128;-79
2021/09/22 03:39:33;;;;;;;19.80;9.30;;;;;;;11.61;94.29;102101.66;112099;1192;63289;-80
2021/09/22 03:42:01;;;;;;;20.70;9.50;;;;;;;11.61;94.87;102106.67;112359;1192;61010;-80
2021/09/22 03:44:27;;;;;;;18.00;10.20;;;;;;;11.60;94.86;102106.51;112613;1192;74106;-80
2021/09/22 03:46:54;;;;;;;16.00;9.10;;;;;;;11.62;94.62;102109.41;112336;1192;60988;-78
2021/09/22 03:49:21;;;;;;;13.20;8.00;;;;;;;11.62;94.84;102110.44;112589;1192;73582;-80
2021/09/22 03:51:48;;;;;;;21.20;10.50;;;;;;;11.62;94.89;102110.61;112570;1192;61081;-79
2021/09/22 03:54:15;;;;;;;17.60;10.50;;;;;;;11.62;95.20;102109.71;112427;1192;61484;-80
2021/09/22 03:56:41;;;;;;;17.00;10.00;;;;;;;11.61;95.37;102107.81;112475;1192;62003;-80
2021/09/22 03:59:08;;;;;;;17.20;9.90;;;;;;;11.62;95.34;102109.91;112423;1192;61019;-78
2021/09/22 04:01:34;;;;;;;22.20;10.60;;;;;;;11.61;95.45;102108.00;112132;1193;71123;-81
2021/09/22 04:04:01;;;;;;;16.50;10.20;;;;;;;11.61;95.82;102105.91;112277;1194;61740;-80
2021/09/22 04:06:28;;;;;;;19.70;10.60;;;;;;;11.62;95.80;102110.23;112407;1193;61056;-80
2021/09/22 04:08:55;;;;;;;18.90;9.80;;;;;;;11.61;95.64;102109.61;112273;1193;61087;-80
2021/09/22 04:11:21;;;;;;;16.80;10.40;;;;;;;11.62;96.02;102110.63;112178;1193;60965;-80
2021/09/22 04:13:48;;;;;;;18.90;9.60;;;;;;;11.63;95.88;102102.73;112456;1192;61048;-80
2021/09/22 04:16:14;;;;;;;15.20;8.70;;;;;;;11.64;96.13;102107.24;112204;1193;61025;-80
2021/09/22 04:18:41;;;;;;;13.60;9.20;;;;;;;11.63;96.22;102108.73;112297;1193;61171;-80
2021/09/22 04:21:08;;;;;;;17.10;10.00;;;;;;;11.62;96.57;102110.25;112489;1192;75741;-81
2021/09/22 04:23:35;;;;;;;19.30;9.90;;;;;;;11.63;96.52;102104.50;112539;1192;71989;-80
2021/09/22 04:26:01;;;;;;;19.20;10.40;;;;;;;11.66;96.22;102105.48;112347;1192;73674;-80
2021/09/22 04:28:28;;;;;;;17.10;8.40;;;;;;;11.66;96.53;102105.48;112383;1192;61059;-80
2021/09/22 04:30:55;;;;;;;23.10;10.10;;;;;;;11.66;96.56;102103.65;112324;1192;60962;-82
2021/09/22 04:33:21;;;;;;;18.20;10.80;;;;;;;11.68;96.49;102102.64;112437;1192;61017;-81
2021/09/22 04:35:48;;;;;;;18.20;10.00;;;;;;;11.68;96.66;102103.80;113017;1192;61074;-88
2021/09/22 04:38:17;;;;;;;19.30;9.70;;;;;;;11.71;96.72;102100.91;112533;1191;126564;-77
2021/09/22 04:40:43;;;;;;;19.20;10.90;;;;;;;11.73;96.82;102102.27;112255;1192;61106;-75
2021/09/22 04:43:10;;;;;;;20.00;9.90;;;;;;;11.76;96.64;102097.02;112281;1190;61088;-75
2021/09/22 04:45:36;;;;;;;20.40;12.30;;;;;;;11.78;96.56;102094.33;112162;1193;60968;-75
2021/09/22 04:48:03;;;;;;;15.10;9.40;;;;;;;11.78;96.60;102094.14;112296;1191;61081;-75
2021/09/22 04:50:30;;;;;;;18.30;10.30;;;;;;;11.77;96.22;102097.66;112129;1192;73639;-75
2021/09/22 04:52:57;;;;;;;20.00;10.20;;;;;;;11.74;96.48;102098.66;112170;1191;61039;-76
2021/09/22 04:55:24;;;;;;;16.70;9.40;;;;;;;11.70;96.60;102097.11;112179;1192;61116;-76
2021/09/22 04:57:50;;;;;;;17.70;10.70;;;;;;;11.66;96.67;102096.05;112352;1190;74355;-75
2021/09/22 05:00:17;;;;;;;20.60;10.10;;;;;;;11.63;96.79;102096.86;111867;1191;71327;-77
2021/09/22 05:02:44;;;;;;;21.10;11.00;;;;;;;11.60;96.62;102098.20;112352;1191;73890;-75
2021/09/22 05:05:11;;;;;;;18.60;12.10;;;;;;;11.59;96.75;102096.20;112266;1190;61867;-75
2021/09/22 05:07:37;;;;;;;16.50;9.00;;;;;;;11.56;97.01;102099.30;112114;1192;61151;-77
2021/09/22 05:10:04;;;;;;;22.00;10.90;;;;;;;11.53;97.20;102101.21;112190;1191;75684;-76
2021/09/22 05:12:31;;;;;;;16.70;9.70;;;;;;;11.51;96.97;102106.75;112618;1190;73807;-76
2021/09/22 05:14:57;;;;;;;21.10;11.20;;;;;;;11.49;97.37;102108.45;112108;1192;61796;-78
2021/09/22 05:17:24;;;;;;;18.80;10.90;;;;;;;11.48;97.29;102100.94;112143;1192;61045;-77
2021/09/22 05:19:50;;;;;;;20.90;10.90;;;;;;;11.49;97.19;102106.36;112216;1191;60940;-76
2021/09/22 05:22:17;;;;;;;34.10;11.60;;;;;;;11.51;97.31;102107.77;112297;1190;61656;-75
2021/09/22 05:24:45;;;;;;;20.30;10.60;;;;;;;11.52;97.29;102108.92;112250;1191;70993;-76
2021/09/22 05:27:12;;;;;;;23.90;11.90;;;;;;;11.54;97.46;102111.54;112272;1192;72776;-76
2021/09/22 05:29:38;;;;;;;17.90;9.40;;;;;;;11.57;97.24;102113.27;112337;1190;61027;-76
2021/09/22 05:32:05;;;;;;;18.50;10.80;;;;;;;11.57;97.27;102113.20;112139;1193;61055;-76
2021/09/22 05:34:33;;;;;;;18.80;11.70;;;;;;;11.58;97.34;102112.27;111940;1193;75485;-76
2021/09/22 05:37:00;;;;;;;21.70;10.90;;;;;;;11.59;97.21;102112.86;112024;1193;71067;-78
2021/09/22 05:39:27;;;;;;;19.50;10.00;;;;;;;11.60;97.23;102112.02;112304;1192;73268;-75
2021/09/22 05:41:53;;;;;;;21.40;11.40;;;;;;;11.61;97.16;102111.45;112261;1192;61071;-78
2021/09/22 05:44:20;;;;;;;20.40;11.20;;;;;;;11.61;97.21;102108.01;112164;1192;61058;-78
2021/09/22 05:46:46;;;;;;;26.70;12.10;;;;;;;11.63;97.37;102114.05;112063;1192;61475;-77
2021/09/22 05:49:13;;;;;;;22.00;12.00;;;;;;;11.65;97.57;102120.09;112321;1190;61992;-77
2021/09/22 05:51:39;;;;;;;18.00;10.30;;;;;;;11.64;97.74;102124.40;112258;1192;61032;-76
2021/09/22 05:54:06;;;;;;;44.30;25.70;;;;;;;11.62;97.91;102126.49;112047;1193;61027;-76
2021/09/22 05:56:32;;;;;;;25.80;11.40;;;;;;;11.63;98.08;102126.84;112157;1193;61093;-77
2021/09/22 05:58:59;;;;;;;23.30;12.10;;;;;;;11.65;98.17;102125.73;112309;1191;61028;-77
2021/09/22 06:01:25;;;;;;;23.00;15.90;;;;;;;11.68;98.12;102131.61;112254;1192;61065;-76
2021/09/22 06:03:52;;;;;;;25.30;12.40;;;;;;;11.71;98.12;102135.64;112350;1192;72470;-76
2021/09/22 06:06:19;;;;;;;28.20;15.80;;;;;;;11.73;97.86;102138.96;112067;1192;61645;-77
2021/09/22 06:08:46;;;;;;;20.30;11.70;;;;;;;11.77;98.05;102144.60;111978;1192;61050;-76
2021/09/22 06:11:13;;;;;;;22.80;13.50;;;;;;;11.82;98.26;102142.02;112053;1193;60973;-74
2021/09/22 06:13:40;;;;;;;31.90;17.10;;;;;;;11.89;98.10;102139.63;112321;1192;71023;-76
2021/09/22 06:16:06;;;;;;;25.50;9.60;;;;;;;11.95;98.07;102132.47;112047;1192;72581;-76
2021/09/22 06:18:35;;;;;;;22.00;11.30;;;;;;;12.01;97.93;102134.59;111948;1192;61768;-76
2021/09/22 06:21:04;;;;;;;24.00;9.80;;;;;;;12.05;98.13;102139.70;112237;1192;62135;-78
2021/09/22 06:23:31;;;;;;;15.20;8.90;;;;;;;12.09;98.15;102141.60;112457;1193;74807;-78
2021/09/22 06:25:58;;;;;;;20.50;11.60;;;;;;;12.14;98.06;102139.79;112003;1193;72065;-76
2021/09/22 06:28:24;;;;;;;18.00;11.40;;;;;;;12.21;98.20;102139.71;111983;1192;61065;-75
2021/09/22 06:30:51;;;;;;;18.40;9.00;;;;;;;12.28;97.93;102134.92;112380;1192;61138;-77
2021/09/22 06:33:18;;;;;;;15.30;8.00;;;;;;;12.35;97.85;102132.09;113252;1191;60941;-77
2021/09/22 06:35:47;;;;;;;22.20;9.90;;;;;;;12.41;97.79;102133.12;112274;1193;74604;-76
2021/09/22 06:38:14;;;;;;;16.20;10.10;;;;;;;12.49;97.59;102138.41;112272;1193;71234;-77
2021/09/22 06:40:40;;;;;;;20.20;11.40;;;;;;;12.57;97.31;102138.69;112126;1193;72874;-77
2021/09/22 06:43:07;;;;;;;23.80;12.10;;;;;;;12.64;97.32;102138.48;111926;1192;61024;-78
2021/09/22 06:45:34;;;;;;;17.00;10.20;;;;;;;12.73;97.02;102140.98;112138;1193;61020;-77
2021/09/22 06:48:01;;;;;;;30.70;14.90;;;;;;;12.81;96.83;102136.73;112257;1193;75736;-77
2021/09/22 06:50:29;;;;;;;20.40;9.50;;;;;;;12.92;96.40;102139.77;112393;1192;72240;-77
2021/09/22 06:52:56;;;;;;;16.10;9.50;;;;;;;13.03;96.05;102142.32;112430;1192;72738;-77
2021/09/22 06:55:23;;;;;;;18.80;9.70;;;;;;;13.15;95.91;102142.97;112312;1192;62065;-76
2021/09/22 06:57:49;;;;;;;17.80;10.30;;;;;;;13.26;95.35;102140.21;112480;1193;63282;-74
2021/09/22 07:00:16;;;;;;;22.90;9.40;;;;;;;13.35;94.87;102135.44;112063;1192;61036;-75
2021/09/22 07:02:43;;;;;;;14.90;10.10;;;;;;;13.42;94.68;102130.71;112232;1193;71538;-76
2021/09/22 07:05:11;;;;;;;15.10;8.60;;;;;;;13.53;94.63;102129.53;111938;1192;72624;-76
2021/09/22 07:07:39;;;;;;;19.10;10.30;;;;;;;13.61;94.27;102133.13;112298;1192;61065;-76
2021/09/22 07:10:07;;;;;;;20.70;11.10;;;;;;;13.65;93.44;102134.80;112542;1191;62023;-75
2021/09/22 07:12:34;;;;;;;16.20;8.60;;;;;;;13.68;93.25;102133.27;112245;1192;74718;-75
2021/09/22 07:15:00;;;;;;;13.90;7.20;;;;;;;13.72;93.08;102135.81;112293;1192;70990;-75
2021/09/22 07:17:27;;;;;;;13.20;7.20;;;;;;;13.75;92.75;102136.20;112153;1193;72521;-77
2021/09/22 07:19:54;;;;;;;12.30;7.60;;;;;;;13.80;92.64;102139.79;112184;1193;63143;-74
2021/09/22 07:22:26;;;;;;;13.90;7.40;;;;;;;13.83;92.47;102145.73;112300;1192;61261;-76
2021/09/22 07:24:52;;;;;;;17.50;10.10;;;;;;;13.89;92.58;102150.45;112124;1193;75696;-76
2021/09/22 07:27:19;;;;;;;19.70;11.40;;;;;;;13.99;92.53;102151.55;112224;1193;71983;-75
2021/09/22 07:29:45;;;;;;;20.30;9.10;;;;;;;14.06;92.03;102150.61;112201;1192;61058;-75
2021/09/22 07:32:12;;;;;;;13.30;7.90;;;;;;;14.11;91.84;102154.90;112241;1193;61056;-75
2021/09/22 07:34:39;;;;;;;14.10;7.40;;;;;;;14.14;91.72;102160.60;112021;1193;61233;-75
2021/09/22 07:37:12;;;;;;;23.20;12.70;;;;;;;14.18;91.31;102166.95;112082;1192;74881;-75
2021/09/22 07:39:40;;;;;;;12.70;7.10;;;;;;;14.19;91.01;102167.49;112294;1177;71167;-75
2021/09/22 07:42:12;;;;;;;16.50;8.90;;;;;;;14.20;90.77;102163.31;112326;1192;72879;-74
2021/09/22 07:44:41;;;;;;;14.60;6.60;;;;;;;14.25;90.90;102166.74;112380;1192;61994;-74
2021/09/22 07:47:07;;;;;;;18.40;10.10;;;;;;;14.30;90.66;102164.82;112216;1193;61064;-76
2021/09/22 07:49:34;;;;;;;23.50;10.80;;;;;;;14.37;90.59;102164.23;111996;1192;61411;-75
2021/09/22 07:52:01;;;;;;;14.60;7.60;;;;;;;14.48;90.53;102164.33;112132;1191;71065;-75
2021/09/22 07:54:27;;;;;;;21.60;10.50;;;;;;;14.61;90.47;102166.14;112206;1192;72759;-74
2021/09/22 07:56:54;;;;;;;14.30;6.30;;;;;;;14.73;89.37;102164.67;112179;1192;61077;-76
2021/09/22 07:59:20;;;;;;;12.80;4.70;;;;;;;14.80;88.48;102166.98;112161;1192;61138;-76
2021/09/22 08:01:50;;;;;;;17.40;6.60;;;;;;;14.82;87.98;102165.45;112199;1193;60982;-76
2021/09/22 08:04:21;;;;;;;15.50;8.10;;;;;;;14.92;88.26;102165.48;112304;1192;70901;-74
2021/09/22 08:06:47;;;;;;;15.30;6.40;;;;;;;15.00;87.36;102162.11;112243;1193;73589;-75
2021/09/22 08:09:14;;;;;;;11.00;7.00;;;;;;;15.05;87.12;102154.34;112167;1192;61051;-75
2021/09/22 08:11:40;;;;;;;13.50;5.80;;;;;;;15.11;86.69;102152.73;111931;1192;61724;-75
2021/09/22 08:14:29;;;;;;;14.30;6.80;;;;;;;15.14;86.15;102148.05;111938;1192;77125;-76
2021/09/22 08:16:57;;;;;;;9.60;4.30;;;;;;;15.19;85.74;102144.67;112047;1193;72252;-76
2021/09/22 08:19:27;;;;;;;10.30;5.00;;;;;;;15.23;85.67;102140.83;112007;1193;73012;-77
2021/09/22 08:21:54;;;;;;;22.50;8.70;;;;;;;15.29;85.07;102138.43;112207;1192;61353;-76
2021/09/22 08:24:21;;;;;;;8.30;5.10;;;;;;;15.37;84.86;102142.19;112363;1192;61045;-77
2021/09/22 08:26:52;;;;;;;11.50;5.30;;;;;;;15.41;84.53;102141.64;112333;1192;75607;-76
2021/09/22 08:29:20;;;;;;;14.60;6.50;;;;;;;15.55;84.59;102137.63;112393;1192;71353;-76
2021/09/22 08:31:48;;;;;;;12.90;6.90;;;;;;;15.63;83.57;102138.67;112383;1192;72954;-75
2021/09/22 08:34:15;;;;;;;12.00;5.60;;;;;;;15.66;83.07;102143.41;112312;1192;61061;-75
2021/09/22 08:36:44;;;;;;;9.80;5.20;;;;;;;15.60;82.54;102155.27;112067;1192;61258;-76
2021/09/22 08:39:12;;;;;;;8.70;4.70;;;;;;;15.50;82.44;102157.94;112223;1192;75514;-75
2021/09/22 08:41:40;;;;;;;11.70;6.10;;;;;;;15.49;82.85;102156.54;112278;1192;70974;-76
2021/09/22 08:44:08;;;;;;;11.70;4.90;;;;;;;15.49;83.00;102158.11;112430;1193;73744;-75
2021/09/22 08:46:36;;;;;;;10.40;5.60;;;;;;;15.46;82.85;102157.48;112488;1193;61056;-74
2021/09/22 08:49:04;;;;;;;7.80;4.00;;;;;;;15.49;83.15;102156.67;112270;1192;61048;-77
2021/09/22 08:51:32;;;;;;;13.80;6.20;;;;;;;15.52;83.10;102157.48;112471;1193;76606;-76
2021/09/22 08:53:59;;;;;;;8.50;3.90;;;;;;;15.57;82.93;102154.78;112185;1193;72684;-75
2021/09/22 08:56:28;;;;;;;13.20;5.20;;;;;;;15.60;83.09;102159.00;112333;1192;73489;-76
2021/09/22 08:58:55;;;;;;;9.70;4.40;;;;;;;15.64;83.20;102162.38;112254;1192;61063;-76
2021/09/22 09:01:25;;;;;;;12.50;5.10;;;;;;;15.70;83.10;102157.95;112259;1192;61028;-75
2021/09/22 09:03:52;;;;;;;20.50;11.30;;;;;;;15.75;82.78;102155.40;112424;1193;74553;-74
2021/09/22 09:06:34;;;;;;;7.10;3.60;;;;;;;15.78;82.78;102155.56;112575;1192;70984;-76
2021/09/22 09:09:03;;;;;;;11.70;5.30;;;;;;;15.82;82.36;102147.85;112335;1192;71694;-76
2021/09/22 09:11:39;;;;;;;9.20;4.70;;;;;;;15.80;82.02;102150.14;112502;1191;61007;-76
2021/09/22 09:14:10;;;;;;;10.60;5.20;;;;;;;15.82;81.93;102154.45;112458;1192;61233;-75
2021/09/22 09:16:43;;;;;;;10.30;4.50;;;;;;;15.85;81.83;102149.45;112362;1192;74136;-76
2021/09/22 09:19:21;;;;;;;13.70;6.00;;;;;;;15.88;81.79;102149.09;112561;1193;71759;-78
2021/09/22 09:22:06;;;;;;;10.20;5.30;;;;;;;15.94;81.87;102148.67;112397;1193;73081;-78
2021/09/22 09:24:35;;;;;;;;;;;;;;;16.02;81.65;102153.42;112528;1192;62060;-77
2021/09/22 09:27:05;;;;;;;6.80;3.40;;;;;;;16.01;80.45;102150.31;112522;1193;61324;-76
2021/09/22 09:29:32;;;;;;;8.30;3.80;;;;;;;16.03;80.61;102147.83;112475;1193;74761;-75
2021/09/22 09:32:19;;;;;;;10.50;5.40;;;;;;;16.07;80.39;102144.45;112459;1192;71818;-75
2021/09/22 09:34:58;;;;;;;8.30;4.80;;;;;;;16.19;80.05;102142.90;112510;1192;72999;-75
2021/09/22 09:37:34;;;;;;;9.90;3.80;;;;;;;16.26;79.34;102142.96;112474;1192;61805;-77
2021/09/22 09:40:23;;;;;;;10.00;3.80;;;;;;;16.33;78.84;102145.98;112455;1192;61067;-76
2021/09/22 09:43:00;;;;;;;9.60;4.10;;;;;;;16.32;78.44;102147.69;112394;1192;74543;-76
2021/09/22 09:45:42;;;;;;;14.90;4.70;;;;;;;16.33;78.55;102139.67;112445;1192;71839;-77
2021/09/22 09:48:12;;;;;;;12.00;3.10;;;;;;;16.39;78.37;102144.77;112338;1192;72505;-75
2021/09/22 09:50:45;;;;;;;4.90;2.80;;;;;;;16.43;78.17;102144.43;112433;1192;61042;-76
2021/09/22 09:53:27;;;;;;;12.60;4.50;;;;;;;16.47;76.34;102144.14;112653;1192;60978;-75
2021/09/22 09:55:59;;;;;;;10.60;4.50;;;;;;;16.56;76.31;102141.98;112625;1192;74556;-75
2021/09/22 09:58:29;;;;;;;9.80;2.60;;;;;;;16.90;76.37;102134.09;112435;1192;71480;-75
2021/09/22 10:00:57;;;;;;;5.40;3.20;;;;;;;17.22;74.45;102131.61;112364;1192;72644;-75
2021/09/22 10:03:24;;;;;;;6.40;2.60;;;;;;;17.52;73.65;102128.50;112361;1193;61647;-77
2021/09/22 10:05:53;;;;;;;12.10;3.10;;;;;;;17.66;70.53;102126.61;112395;1192;61056;-76
2021/09/22 10:08:21;;;;;;;8.10;3.10;;;;;;;17.83;69.93;102131.68;112314;1192;73596;-76
2021/09/22 10:10:50;;;;;;;7.20;4.00;;;;;;;17.85;69.99;102133.16;112335;1192;72076;-75
2021/09/22 10:13:19;;;;;;;8.40;3.80;;;;;;;17.85;70.45;102133.48;112522;1191;73217;-78
2021/09/22 10:15:47;;;;;;;4.50;2.70;;;;;;;17.77;68.75;102137.86;112324;1192;61058;-77
2021/09/22 10:18:16;;;;;;;7.40;3.10;;;;;;;17.56;68.26;102142.00;112429;1192;61322;-77
2021/09/22 10:20:45;;;;;;;4.40;2.10;;;;;;;17.32;69.38;102143.38;112555;1194;75586;-76
2021/09/22 10:23:21;;;;;;;3.50;1.80;;;;;;;17.17;71.05;102136.98;112327;1193;71036;-75
2021/09/22 10:25:49;;;;;;;5.90;3.00;;;;;;;17.11;71.14;102135.41;112441;1192;72657;-76
2021/09/22 10:28:16;;;;;;;7.30;2.10;;;;;;;17.12;70.63;102136.51;112451;1192;61746;-76
2021/09/22 10:30:47;;;;;;;8.60;1.80;;;;;;;17.22;70.46;102128.16;112283;1192;61055;-76
2021/09/22 10:33:25;;;;;;;7.90;2.50;;;;;;;17.42;70.36;102127.80;112156;1193;74527;-76
2021/09/22 10:36:04;;;;;;;6.90;2.40;;;;;;;17.46;69.03;102127.46;112345;1192;70861;-76
2021/09/22 10:38:30;;;;;;;6.10;1.90;;;;;;;17.59;69.26;102118.88;112041;1192;74310;-75
2021/09/22 10:41:02;;;;;;;5.00;2.50;;;;;;;17.74;67.72;102114.97;112257;1192;62012;-75
2021/09/22 10:43:35;;;;;;;4.20;1.70;;;;;;;17.78;66.21;102112.11;112102;1193;61049;-75
2021/09/22 10:46:10;;;;;;;3.50;1.30;;;;;;;17.86;64.54;102107.73;112016;1193;76540;-75
2021/09/22 10:48:59;;;;;;;6.20;2.00;;;;;;;17.99;64.34;102104.77;112271;1192;71094;-75
2021/09/22 10:51:35;;;;;;;3.30;1.70;;;;;;;17.98;64.81;102107.94;112299;1193;72585;-74
2021/09/22 10:54:35;;;;;;;3.90;1.90;;;;;;;17.91;66.06;102097.59;112307;1193;61090;-74
2021/09/22 10:57:02;;;;;;;7.80;2.70;;;;;;;17.80;65.71;102093.10;112070;1193;61258;-75
2021/09/22 10:59:30;;;;;;;6.60;2.80;;;;;;;17.73;65.86;102091.77;112153;1192;74551;-78
2021/09/22 11:01:59;;;;;;;9.10;1.80;;;;;;;17.86;65.48;102088.23;112237;1192;72034;-75
2021/09/22 11:04:46;;;;;;;5.70;1.90;;;;;;;17.97;65.69;102085.80;112213;1193;72441;-75
2021/09/22 11:07:13;;;;;;;5.90;1.70;;;;;;;18.00;65.67;102083.14;112236;1193;61019;-75
2021/09/22 11:09:40;;;;;;;4.00;2.30;;;;;;;17.99;65.61;102084.02;112075;1193;61038;-76
2021/09/22 11:12:10;;;;;;;10.10;5.00;;;;;;;18.16;65.54;102088.55;112044;1193;74988;-74
2021/09/22 11:14:41;;;;;;;7.90;2.20;;;;;;;18.35;64.98;102083.58;112125;1192;72007;-74